Time;durP1;ratioP1;P1;durP2;ratioP2;P2;SDS_P1;SDS_P2;PMS_P1;PMS_P2;Temp;Humidity;BMP_temperature;BMP_pressure;BME280_temperature;BME280_humidity;BME280_pressure;Samples;Min_cycle;Max_cycle;Signal;HPM_P1;HPM_P2
2022/09/26 00:03:02;;;;;;;;;;;18.50;49.30;;;16.61;53.98;100437.84;12248935;19;19924;-88
2022/09/26 00:07:03;;;;;;;;;;;18.60;49.30;;;16.57;54.16;100431.97;12254476;19;20365;-88
2022/09/26 00:11:07;;;;;;;;;;;18.40;49.30;;;16.51;54.04;100418.50;12253061;19;19915;-88
2022/09/26 00:15:09;;;;;;;;;;;18.40;49.30;;;16.54;53.98;100428.78;12249942;19;19976;-88
2022/09/26 00:19:11;;;;;;;;;;;18.40;49.30;;;16.43;54.09;100416.50;12255402;19;19978;-89
2022/09/26 00:23:13;;;;;;;;;;;18.40;49.30;;;16.56;54.02;100440.03;12249111;19;19919;-89
2022/09/26 00:27:15;;;;;;;;;;;18.40;49.40;;;16.42;54.17;100412.22;12253856;19;19955;-89
2022/09/26 00:31:23;;;;;;;;;;;18.50;49.40;;;16.46;53.92;100426.78;12253364;19;19926;-89
2022/09/26 00:35:24;;;;;;;;;;;18.40;49.40;;;16.12;54.27;100379.59;12246691;19;19925;-88
2022/09/26 00:39:26;;;;;;;;;;;18.30;49.40;;;16.42;54.07;100421.91;12248719;19;19915;-88
2022/09/26 00:43:28;;;;;;;;;;;18.20;49.40;;;16.41;54.24;100420.22;12244637;19;19999;-89
2022/09/26 00:47:43;;;;;;;;;;;18.20;49.40;;;16.25;53.94;100399.59;12247978;19;19919;-88
2022/09/26 00:51:52;;;;;;;;;;;18.20;49.50;;;16.28;54.37;100404.63;12247896;19;19918;-89
2022/09/26 00:55:57;;;;;;;;;;;18.20;49.50;;;16.25;54.22;100402.25;12244485;19;20013;-89
2022/09/26 01:00:03;;;;;;;;;;;18.10;49.40;;;16.21;54.28;100395.56;12242369;19;19922;-89
2022/09/26 01:04:06;;;;;;;;;;;18.10;49.40;;;16.29;54.29;100404.50;12239573;19;19939;-89
2022/09/26 01:08:08;;;;;;;;;;;18.40;49.60;;;16.20;53.87;100394.72;12246370;19;19923;-89
2022/09/26 01:12:10;;;;;;;;;;;18.00;49.40;;;16.22;54.16;100398.06;12249589;19;19919;-88
2022/09/26 01:16:13;;;;;;;;;;;18.20;49.50;;;16.20;54.16;100394.72;12246164;19;19927;-89
2022/09/26 01:20:39;;;;;;;;;;;18.00;49.40;;;16.27;54.33;100403.78;12249479;19;19918;-89
2022/09/26 01:24:50;;;;;;;;;;;18.10;49.50;;;16.17;54.31;100388.88;12246432;19;19978;-89
2022/09/26 01:29:34;;;;;;;;;;;18.00;49.40;;;16.11;54.09;100374.44;12248554;19;19930;-89
2022/09/26 01:33:45;;;;;;;;;;;18.00;49.40;;;16.21;54.40;100383.22;12236033;19;19917;-89
2022/09/26 01:37:53;;;;;;;;;;;18.00;49.40;;;16.21;54.15;100387.69;12248586;19;19926;-89
2022/09/26 01:41:57;;;;;;;;;;;18.00;49.40;;;16.19;54.52;100379.06;12245711;19;19922;-89
2022/09/26 01:46:10;;;;;;;;;;;18.00;49.50;;;16.15;54.22;100387.22;12245999;19;19929;-89
2022/09/26 01:50:27;;;;;;;;;;;17.90;49.50;;;16.13;54.36;100383.88;12247027;19;19923;-89
2022/09/26 01:54:36;;;;;;;;;;;17.90;49.40;;;16.08;54.43;100372.88;12245817;19;19934;-89
2022/09/26 01:58:49;;;;;;;;;;;17.90;49.40;;;16.08;54.46;100372.88;12245105;19;19933;-89
2022/09/26 02:02:53;;;;;;;;;;;17.90;49.40;;;16.11;54.33;100379.69;12244021;19;19923;-89
2022/09/26 02:07:10;;;;;;;;;;;17.90;49.40;;;16.08;54.40;100374.69;12249739;19;19914;-89
2022/09/26 02:11:16;;;;;;;;;;;17.90;49.40;;;16.04;54.33;100370.63;12250023;19;19910;-89
2022/09/26 02:15:19;;;;;;;;;;;17.80;49.40;;;15.59;54.19;100292.72;12249273;19;20322;-89
2022/09/26 02:19:25;;;;;;;;;;;17.90;49.40;;;15.93;54.59;100340.78;12262755;19;19922;-88
2022/09/26 02:23:27;;;;;;;;;;;18.20;49.50;;;15.70;54.41;100297.09;12254895;19;19927;-88
2022/09/26 02:27:29;;;;;;;;;;;18.00;49.50;;;16.00;54.29;100353.44;12260363;19;19923;-88
2022/09/26 02:31:35;;;;;;;;;;;18.10;49.50;;;15.98;54.57;100350.91;12257404;19;19926;-88
2022/09/26 02:35:55;;;;;;;;;;;17.80;49.40;;;15.93;54.66;100340.78;12253227;19;20262;-89
2022/09/26 02:39:59;;;;;;;;;;;17.80;49.40;;;15.79;54.52;100313.94;12256256;19;19915;-88
2022/09/26 02:44:32;;;;;;;;;;;17.80;49.40;;;15.98;54.38;100352.72;12252558;19;19919;-89
2022/09/26 02:49:08;;;;;;;;;;;17.80;49.40;;;15.90;54.52;100338.41;12254321;19;19925;-88
2022/09/26 02:53:45;;;;;;;;;;;17.80;49.40;;;15.98;54.59;100344.81;12256249;19;19919;-89
2022/09/26 02:58:07;;;;;;;;;;;17.80;49.50;;;15.84;54.79;100317.84;12255574;19;19919;-88
2022/09/26 03:02:08;;;;;;;;;;;17.70;49.40;;;16.00;54.40;100330.56;12253489;19;19922;-88
2022/09/26 03:06:16;;;;;;;;;;;17.80;49.50;;;15.99;54.60;100326.25;12250625;19;19945;-89
2022/09/26 03:10:18;;;;;;;;;;;17.90;49.50;;;16.01;54.42;100326.94;12254823;19;19950;-89
2022/09/26 03:14:21;;;;;;;;;;;17.80;49.40;;;15.88;54.53;100300.84;12246355;19;19940;-86
2022/09/26 03:18:27;;;;;;;;;;;17.80;49.40;;;15.82;54.75;100284.69;12247125;19;19943;-86
2022/09/26 03:22:28;;;;;;;;;;;17.80;49.40;;;15.85;54.67;100287.06;12246024;19;20306;-86
2022/09/26 03:26:31;;;;;;;;;;;17.90;49.40;;;15.96;54.62;100300.19;12245777;19;20350;-86
2022/09/26 03:30:35;;;;;;;;;;;18.10;49.50;;;15.89;54.59;100289.31;12250409;19;19923;-86
2022/09/26 03:34:56;;;;;;;;;;;17.90;49.40;;;15.93;54.59;100301.28;12249774;19;19911;-86
2022/09/26 03:38:58;;;;;;;;;;;17.80;49.40;;;15.79;54.62;100282.31;12249947;19;19918;-86
2022/09/26 03:43:11;;;;;;;;;;;17.90;49.50;;;15.93;54.72;100300.41;12248084;19;20337;-86
2022/09/26 03:47:14;;;;;;;;;;;17.80;49.50;;;15.56;54.70;100239.50;12251429;19;19950;-86
2022/09/26 03:51:19;;;;;;;;;;;17.80;49.40;;;15.93;54.66;100298.66;12251349;19;19975;-86
2022/09/26 03:55:21;;;;;;;;;;;17.70;49.50;;;15.84;54.76;100273.06;12247723;19;19936;-86
2022/09/26 03:59:23;;;;;;;;;;;17.90;49.50;;;15.79;54.50;100271.78;12250278;19;19952;-86
2022/09/26 04:03:26;;;;;;;;;;;17.80;49.50;;;15.89;54.72;100294.59;12245933;19;20574;-86
2022/09/26 04:07:27;;;;;;;;;;;17.70;49.40;;;15.85;54.67;100287.06;12250728;19;19923;-86
2022/09/26 04:11:29;;;;;;;;;;;17.70;49.40;;;15.79;54.79;100275.25;12251276;19;19930;-86
2022/09/26 04:15:31;;;;;;;;;;;17.80;49.50;;;15.86;54.73;100280.84;12246946;19;19922;-86
2022/09/26 04:19:39;;;;;;;;;;;17.70;49.40;;;15.46;54.65;100218.38;12248722;19;19914;-86
2022/09/26 04:23:42;;;;;;;;;;;17.70;49.40;;;15.48;54.59;100219.91;12245042;19;19922;-86
2022/09/26 04:27:44;;;;;;;;;;;17.70;49.50;;;15.85;54.85;100273.91;12246738;19;19921;-86
2022/09/26 04:31:46;;;;;;;;;;;17.70;49.50;;;15.43;54.64;100208.94;12248239;19;19921;-85
2022/09/26 04:35:52;;;;;;;;;;;17.70;49.40;;;15.61;54.57;100245.22;12244742;19;19917;-86
2022/09/26 04:39:54;;;;;;;;;;;17.70;49.40;;;15.41;54.66;100221.38;12245539;19;19918;-85
2022/09/26 04:43:58;;;;;;;;;;;17.60;49.40;;;15.63;54.82;100245.91;12243465;19;19930;-86
2022/09/26 04:47:59;;;;;;;;;;;18.10;49.60;;;15.71;54.66;100264.53;12247517;19;19911;-86
2022/09/26 04:52:01;;;;;;;;;;;17.70;49.40;;;15.56;54.75;100245.59;12249599;19;20325;-86
2022/09/26 04:56:03;;;;;;;;;;;17.60;49.40;;;15.56;54.81;100245.59;12245292;19;19919;-86
2022/09/26 05:00:07;;;;;;;;;;;17.60;49.50;;;15.53;54.80;100237.09;12247511;19;19915;-86
2022/09/26 05:04:09;;;;;;;;;;;17.60;49.40;;;15.59;54.95;100257.66;12245070;19;20004;-86
2022/09/26 05:08:13;;;;;;;;;;;17.60;49.40;;;15.32;54.90;100237.94;12246327;19;19922;-85
2022/09/26 05:12:16;;;;;;;;;;;17.50;49.40;;;15.20;54.81;100210.00;12247282;19;19919;-86
2022/09/26 05:16:20;;;;;;;;;;;17.40;49.40;;;15.46;54.93;100247.31;12242096;19;20246;-86
2022/09/26 05:20:30;;;;;;;;;;;17.40;49.50;;;15.52;55.01;100264.38;12246820;19;19917;-86
2022/09/26 05:29:00;;;;;;;;;;;17.40;49.60;;;15.42;55.08;100244.13;12242270;19;19929;-86
2022/09/26 05:33:12;;;;;;;;;;;17.40;49.50;;;15.05;55.07;100189.28;12239572;19;19931;-86
2022/09/26 05:37:14;;;;;;;;;;;17.30;49.50;;;15.38;55.06;100258.47;12243249;19;19922;-86
2022/09/26 05:41:16;;;;;;;;;;;17.30;49.40;;;15.33;55.16;100255.38;12244946;19;19950;-86
2022/09/26 05:45:18;;;;;;;;;;;17.30;49.50;;;15.09;55.13;100213.53;12243810;19;20349;-86
2022/09/26 05:49:21;;;;;;;;;;;17.30;49.60;;;15.22;55.05;100234.41;12246252;19;19918;-86
2022/09/26 05:53:24;;;;;;;;;;;17.60;49.80;;;15.33;55.15;100251.94;12256888;19;19943;-86
2022/09/26 05:57:26;;;;;;;;;;;17.30;49.70;;;15.21;54.95;100235.38;12261215;19;19923;-86
2022/09/26 06:01:31;;;;;;;;;;;17.30;49.60;;;14.98;55.14;100203.06;12256844;19;19919;-85
2022/09/26 06:05:41;;;;;;;;;;;17.20;49.60;;;15.15;55.12;100249.00;12256567;19;20336;-86
2022/09/26 06:09:47;;;;;;;;;;;17.20;49.60;;;15.00;55.16;100217.75;12258904;19;19923;-86
2022/09/26 06:14:02;;;;;;;;;;;17.20;49.70;;;15.19;55.24;100245.19;12257792;19;20330;-86
2022/09/26 06:18:04;;;;;;;;;;;17.20;49.70;;;15.19;55.27;100238.13;12256464;19;20393;-86
2022/09/26 06:22:06;;;;;;;;;;;17.20;49.70;;;15.27;55.13;100251.47;12251828;19;20350;-85
2022/09/26 06:26:11;;;;;;;;;;;17.20;49.70;;;15.02;55.03;100205.31;12251593;19;19919;-85
2022/09/26 06:30:13;;;;;;;;;;;17.20;49.70;;;15.30;55.34;100239.03;12254514;19;19918;-86
2022/09/26 06:34:15;;;;;;;;;;;17.20;49.70;;;15.30;55.22;100242.50;12251402;19;19915;-86
2022/09/26 06:38:27;;;;;;;;;;;17.40;50.20;;;15.35;55.41;100242.94;12254057;19;19927;-86
2022/09/26 06:42:36;;;;;;;;;;;17.30;49.80;;;15.15;55.33;100189.38;12260340;19;19922;-86
2022/09/26 06:47:01;;;;;;;;;;;17.30;50.30;;;15.40;55.26;100226.78;12254356;19;19974;-86
2022/09/26 06:51:12;;;;;;;;;;;17.30;49.90;;;15.46;55.41;100228.91;12254314;19;19927;-86
2022/09/26 06:55:15;;;;;;;;;;;17.40;50.00;;;15.49;55.43;100226.84;12249479;19;20249;-85
2022/09/26 06:59:17;;;;;;;;;;;17.30;49.90;;;15.39;55.34;100206.69;12256433;19;19926;-86
2022/09/26 07:03:29;;;;;;;;;;;17.30;50.00;;;15.52;55.46;100219.66;12246900;19;19919;-86
2022/09/26 07:07:45;;;;;;;;;;;17.40;49.90;;;15.47;55.52;100207.72;12255468;19;19999;-86
2022/09/26 07:11:56;;;;;;;;;;;17.40;49.80;;;15.62;55.46;100216.13;12251787;19;19923;-86
2022/09/26 07:15:58;;;;;;;;;;;17.50;49.90;;;15.59;55.41;100195.31;12249455;19;19918;-86
2022/09/26 07:20:22;;;;;;;;;;;17.50;49.90;;;15.74;55.45;100214.25;12251643;19;19923;-86
2022/09/26 07:24:45;;;;;;;;;;;17.60;49.80;;;15.77;55.54;100213.16;12249082;19;19922;-86
2022/09/26 07:28:46;;;;;;;;;;;17.60;49.80;;;15.74;55.23;100202.91;12252281;19;19933;-85
2022/09/26 07:32:47;;;;;;;;;;;17.60;49.90;;;15.82;55.34;100203.91;12247453;19;19927;-86
2022/09/26 07:37:08;;;;;;;;;;;17.70;50.00;;;15.89;55.50;100194.53;12253591;19;19917;-86
2022/09/26 07:41:10;;;;;;;;;;;17.70;49.90;;;15.96;55.62;100188.72;12253063;19;20337;-86
2022/09/26 07:45:12;;;;;;;;;;;17.80;49.80;;;16.04;55.45;100186.25;12250956;19;19970;-85
2022/09/26 07:53:49;;;;;;;;;;;18.00;50.00;;;16.22;55.49;100182.03;12250415;19;19944;-86
2022/09/26 07:58:09;;;;;;;;;;;18.00;50.00;;;16.33;55.62;100165.28;12253373;19;19919;-86
2022/09/26 08:02:39;;;;;;;;;;;18.10;50.00;;;16.50;55.50;100169.91;12249395;19;20298;-87
2022/09/26 08:06:41;;;;;;;;;;;18.30;50.20;;;16.79;55.67;100187.56;12245890;19;19941;-85
2022/09/26 08:10:42;;;;;;;;;;;18.40;50.20;;;16.92;55.65;100174.09;12249016;19;19911;-85
2022/09/26 08:15:07;;;;;;;;;;;18.50;50.30;;;17.16;55.53;100181.59;12247180;19;19982;-86
2022/09/26 08:19:18;;;;;;;;;;;18.80;50.30;;;17.38;55.33;100183.09;12250977;19;19922;-85
2022/09/26 08:23:21;;;;;;;;;;;18.90;50.30;;;17.57;55.65;100192.75;12247724;19;20345;-87
2022/09/26 08:27:42;;;;;;;;;;;19.20;50.30;;;17.52;55.33;100156.22;12243683;19;19979;-87
2022/09/26 08:31:46;;;;;;;;;;;19.30;50.30;;;17.81;55.38;100179.09;12245640;19;19944;-86
2022/09/26 08:35:48;;;;;;;;;;;19.70;50.30;;;17.96;55.44;100176.81;12244406;19;19997;-87
2022/09/26 08:39:55;;;;;;;;;;;19.70;50.00;;;18.09;55.15;100196.66;12248512;19;20248;-87
2022/09/26 08:44:32;;;;;;;;;;;19.80;49.80;;;18.11;55.08;100192.03;12244632;19;19922;-87
2022/09/26 08:49:28;;;;;;;;;;;19.90;49.70;;;18.07;55.03;100184.56;12246434;19;20238;-87
2022/09/26 08:53:42;;;;;;;;;;;19.90;49.40;;;18.18;55.19;100179.09;12245326;19;19975;-87
2022/09/26 08:57:52;;;;;;;;;;;20.00;49.50;;;18.29;55.27;100173.59;12247001;19;19923;-87
2022/09/26 09:01:57;;;;;;;;;;;20.10;49.60;;;18.32;55.24;100169.81;12244929;19;20265;-87
2022/09/26 09:06:11;;;;;;;;;;;20.40;49.60;;;18.36;54.91;100160.59;12242130;19;19936;-87
2022/09/26 09:10:17;;;;;;;;;;;20.20;49.30;;;18.33;54.79;100161.75;12246283;19;19915;-87
2022/09/26 09:14:35;;;;;;;;;;;20.20;49.00;;;18.32;55.07;100161.88;12244467;19;19974;-87
2022/09/26 09:19:36;;;;;;;;;;;20.20;49.00;;;18.22;54.90;100135.50;12249429;19;20334;-86
2022/09/26 09:24:32;;;;;;;;;;;20.20;49.00;;;18.25;54.88;100129.09;12243255;19;19918;-87
2022/09/26 09:28:59;;;;;;;;;;;20.20;48.90;;;18.45;55.07;100137.75;12261266;19;20321;-87
2022/09/26 09:33:22;;;;;;;;;;;20.20;48.90;;;18.61;54.96;100135.25;12259722;19;19915;-87
2022/09/26 09:37:42;;;;;;;;;;;20.30;49.00;;;18.72;54.84;100126.25;12261170;19;19914;-87
2022/09/26 09:42:12;;;;;;;;;;;20.40;49.10;;;18.88;54.86;100126.41;12257182;19;19918;-86
2022/09/26 09:46:37;;;;;;;;;;;20.60;49.00;;;18.93;54.31;100110.91;12255907;19;19929;-87
2022/09/26 09:51:00;;;;;;;;;;;20.70;48.80;;;19.14;54.79;100125.59;12258551;19;20240;-87
2022/09/26 09:55:21;;;;;;;;;;;21.00;48.80;;;19.32;54.53;100112.34;12254114;19;20412;-87
2022/09/26 09:59:41;;;;;;;;;;;21.00;49.00;;;19.50;54.50;100114.91;12259422;19;19918;-87
2022/09/26 10:04:06;;;;;;;;;;;21.10;48.90;;;19.55;54.04;100099.34;12254432;19;19921;-87
2022/09/26 10:08:18;;;;;;;;;;;21.30;48.60;;;19.57;53.75;100094.75;12258703;19;19970;-86
2022/09/26 10:12:41;;;;;;;;;;;21.60;48.60;;;19.52;54.32;100089.09;12258992;19;19919;-87
2022/09/26 10:17:19;;;;;;;;;;;21.40;48.10;;;19.58;53.97;100107.84;12257833;19;19925;-86
2022/09/26 10:21:41;;;;;;;;;;;21.70;48.10;;;19.11;54.00;100036.75;12257091;19;20345;-86
2022/09/26 10:25:47;;;;;;;;;;;21.40;48.00;;;19.32;54.12;100060.19;12255887;19;20349;-86
2022/09/26 10:29:57;;;;;;;;;;;21.40;47.90;;;19.53;54.00;100077.53;12256536;19;19915;-86
2022/09/26 10:34:02;;;;;;;;;;;21.40;47.90;;;19.53;54.17;100053.69;12256971;19;20605;-87
2022/09/26 10:38:18;;;;;;;;;;;21.60;47.80;;;19.70;54.02;100058.06;12257823;19;19919;-85
2022/09/26 10:42:21;;;;;;;;;;;21.50;48.10;;;19.73;53.72;100062.22;12255769;19;19922;-86
2022/09/26 10:46:26;;;;;;;;;;;21.50;47.90;;;19.82;54.00;100046.22;12251970;19;19919;-86
2022/09/26 10:51:04;;;;;;;;;;;21.60;47.90;;;20.00;53.62;100039.94;12252116;19;19914;-86
2022/09/26 10:55:15;;;;;;;;;;;21.80;48.10;;;20.24;53.41;100044.47;12255507;19;19910;-87
2022/09/26 10:59:18;;;;;;;;;;;21.80;48.30;;;20.39;53.36;100044.63;12255978;19;19929;-86
2022/09/26 11:03:32;;;;;;;;;;;22.00;48.40;;;20.46;52.98;100048.28;12254629;19;19915;-85
2022/09/26 11:08:05;;;;;;;;;;;22.10;47.60;;;20.38;52.86;100032.38;12253650;19;19910;-85
2022/09/26 11:12:24;;;;;;;;;;;22.20;47.20;;;20.32;53.20;100025.91;12256998;19;19970;-85
2022/09/26 11:16:27;;;;;;;;;;;22.10;47.70;;;20.31;53.08;100017.13;12250173;19;19934;-86
2022/09/26 11:20:38;;;;;;;;;;;22.20;47.00;;;20.55;53.08;100028.78;12257377;19;19915;-85
2022/09/26 11:24:49;;;;;;;;;;;22.30;47.00;;;20.51;52.78;100009.66;12256834;19;19926;-85
2022/09/26 11:29:02;;;;;;;;;;;22.30;46.80;;;20.58;52.62;100022.28;12255366;19;19963;-85
2022/09/26 11:33:18;;;;;;;;;;;22.40;46.90;;;20.43;52.38;100012.31;12253371;19;19951;-85
2022/09/26 11:37:49;;;;;;;;;;;22.30;46.80;;;20.44;52.38;100013.13;12256084;19;19982;-85
2022/09/26 11:42:01;;;;;;;;;;;22.30;46.80;;;20.27;52.50;99997.22;12255409;19;19911;-85
2022/09/26 11:46:19;;;;;;;;;;;22.30;46.40;;;20.30;52.30;99988.94;12248040;19;19923;-85
2022/09/26 11:50:47;;;;;;;;;;;22.30;46.40;;;20.30;52.30;100001.38;12253698;19;19940;-85
2022/09/26 11:55:00;;;;;;;;;;;22.10;46.80;;;20.24;52.44;99994.09;12254699;19;19906;-84
2022/09/26 11:59:21;;;;;;;;;;;22.10;46.20;;;20.21;52.37;99995.25;12257381;19;19926;-84
2022/09/26 12:04:00;;;;;;;;;;;22.20;46.40;;;20.12;52.59;99980.34;12252576;19;19915;-84
2022/09/26 12:08:46;;;;;;;;;;;22.00;46.20;;;19.99;52.40;99967.56;12254853;19;20336;-85
2022/09/26 12:13:03;;;;;;;;;;;21.90;46.40;;;19.80;52.71;99947.50;12255393;19;19986;-84
2022/09/26 12:17:30;;;;;;;;;;;21.90;46.20;;;19.89;52.42;99959.75;12249967;19;20253;-86
2022/09/26 12:22:27;;;;;;;;;;;21.80;46.10;;;19.76;52.30;99932.91;12252546;19;19987;-86
2022/09/26 12:26:33;;;;;;;;;;;21.70;46.10;;;19.89;52.54;99956.28;12248357;19;20268;-86
2022/09/26 12:30:41;;;;;;;;;;;21.80;46.10;;;19.75;52.05;99927.78;12250452;19;19915;-85
2022/09/26 12:35:18;;;;;;;;;;;21.70;46.20;;;19.63;51.92;99920.13;12249420;19;19940;-86
2022/09/26 12:39:27;;;;;;;;;;;21.70;46.10;;;19.73;52.02;99941.19;12251841;19;20000;-86
2022/09/26 12:43:48;;;;;;;;;;;21.60;46.60;;;19.64;51.55;99920.94;12247688;19;19940;-86
2022/09/26 12:48:01;;;;;;;;;;;21.60;46.10;;;19.55;52.19;99912.16;12249330;19;19917;-86
2022/09/26 12:52:29;;;;;;;;;;;21.50;45.90;;;19.79;51.83;99943.16;12250402;19;19918;-86
2022/09/26 12:57:01;;;;;;;;;;;21.60;46.20;;;19.73;51.89;99924.47;12248759;19;19907;-86
2022/09/26 13:01:02;;;;;;;;;;;21.50;45.80;;;19.79;51.56;99919.31;12246446;19;20324;-85
2022/09/26 13:05:14;;;;;;;;;;;21.50;45.90;;;19.80;51.79;99921.00;12247793;19;19943;-86
2022/09/26 13:09:19;;;;;;;;;;;21.60;46.20;;;19.79;51.20;99918.50;12252299;19;20234;-86
2022/09/26 13:14:06;;;;;;;;;;;21.60;46.20;;;19.78;51.32;99917.69;12247694;19;19926;-86
2022/09/26 13:18:19;;;;;;;;;;;21.60;46.00;;;19.80;51.67;99913.06;12251546;19;20260;-87
2022/09/26 13:22:27;;;;;;;;;;;21.60;46.00;;;19.86;51.06;99904.44;12249862;19;19983;-87
2022/09/26 13:26:33;;;;;;;;;;;21.50;46.20;;;19.71;51.28;99882.22;12249612;19;20561;-88
2022/09/26 13:30:38;;;;;;;;;;;21.60;45.80;;;19.60;51.49;99859.50;12251299;19;19907;-87
2022/09/26 13:34:47;;;;;;;;;;;21.60;45.60;;;19.81;51.32;99885.56;12247749;19;19927;-86
2022/09/26 13:39:09;;;;;;;;;;;21.70;46.00;;;19.86;51.02;99896.50;12252239;19;20287;-86
2022/09/26 13:43:42;;;;;;;;;;;21.90;46.10;;;19.73;51.20;99874.94;12246873;19;19942;-87
2022/09/26 13:48:04;;;;;;;;;;;21.60;45.80;;;19.84;51.46;99895.81;12251142;19;19911;-86
2022/09/26 13:52:25;;;;;;;;;;;21.60;45.70;;;19.86;51.27;99887.72;12250536;19;19952;-86
2022/09/26 13:56:40;;;;;;;;;;;21.60;46.10;;;19.87;51.28;99887.56;12247890;19;19927;-88
2022/09/26 14:00:48;;;;;;;;;;;21.60;45.60;;;19.84;50.98;99864.03;12248497;19;19922;-88
2022/09/26 14:05:02;;;;;;;;;;;21.60;45.60;;;19.81;51.12;99845.00;12246933;19;19922;-90
2022/09/26 14:09:22;;;;;;;;;;;21.70;45.70;;;19.85;50.93;99849.81;12246007;19;20265;-91
2022/09/26 14:13:32;;;;;;;;;;;21.70;45.70;;;19.96;51.18;99845.97;12254986;19;19915;-88
2022/09/26 14:18:11;;;;;;;;;;;21.70;45.50;;;20.02;50.63;99849.78;12259015;19;19919;-88
2022/09/26 14:22:17;;;;;;;;;;;21.70;45.80;;;20.00;50.93;99841.16;12258251;19;19922;-88
2022/09/26 14:26:20;;;;;;;;;;;21.70;45.90;;;19.97;50.86;99842.31;12253630;19;20249;-90
2022/09/26 14:30:23;;;;;;;;;;;21.80;45.70;;;19.73;50.69;99798.13;12258891;19;19918;-89
2022/09/26 14:34:26;;;;;;;;;;;21.80;45.40;;;19.89;50.40;99813.19;12255093;19;19922;-90
2022/09/26 14:38:28;;;;;;;;;;;21.80;45.40;;;19.97;50.64;99817.66;12259078;19;19918;-89
2022/09/26 14:43:15;;;;;;;;;;;21.80;45.40;;;19.58;50.61;99758.22;12258066;19;19906;-89
2022/09/26 14:47:17;;;;;;;;;;;21.80;45.40;;;19.83;50.68;99797.97;12253714;19;19921;-89
2022/09/26 14:51:28;;;;;;;;;;;21.70;45.20;;;19.90;50.89;99809.53;12256788;19;19923;-89
2022/09/26 14:55:32;;;;;;;;;;;21.70;45.20;;;19.91;50.65;99802.44;12255172;19;19918;-92
2022/09/26 14:59:33;;;;;;;;;;;21.70;45.70;;;19.89;50.68;99805.22;12258724;19;19971;-88
2022/09/26 15:03:34;;;;;;;;;;;21.70;45.10;;;19.83;50.50;99795.31;12255341;19;19915;-89
2022/09/26 15:07:47;;;;;;;;;;;21.70;45.40;;;19.77;50.27;99788.88;12260519;19;20345;-89
2022/09/26 15:12:02;;;;;;;;;;;21.70;45.30;;;19.79;51.01;99786.03;12258337;19;19911;-89
2022/09/26 15:16:13;;;;;;;;;;;21.60;45.00;;;19.70;50.18;99774.63;12253710;19;19923;-89
2022/09/26 15:20:18;;;;;;;;;;;21.60;45.70;;;19.59;50.45;99751.91;12256711;19;19919;-89
2022/09/26 15:24:30;;;;;;;;;;;21.60;44.80;;;19.67;50.20;99764.38;12247884;19;20202;-89
2022/09/26 15:28:36;;;;;;;;;;;21.60;45.10;;;19.57;50.21;99764.50;12259013;19;19919;-89
2022/09/26 15:32:38;;;;;;;;;;;21.50;44.80;;;19.55;50.02;99765.66;12257544;19;19923;-88
2022/09/26 15:36:40;;;;;;;;;;;21.50;44.60;;;19.46;50.14;99752.41;12253627;19;19907;-89
2022/09/26 15:40:42;;;;;;;;;;;21.40;44.70;;;19.58;50.19;99779.41;12255430;19;20257;-89
2022/09/26 15:44:52;;;;;;;;;;;21.40;44.80;;;19.44;50.18;99766.81;12251249;19;19944;-89
2022/09/26 15:48:53;;;;;;;;;;;21.30;44.60;;;19.23;50.15;99724.97;12256906;19;19949;-89
2022/09/26 15:53:03;;;;;;;;;;;21.30;44.40;;;19.33;50.21;99730.91;12256713;19;19918;-89
2022/09/26 15:57:06;;;;;;;;;;;21.30;44.90;;;19.47;50.47;99753.28;12255479;19;19919;-89
2022/09/26 16:01:13;;;;;;;;;;;21.30;44.40;;;19.42;50.22;99737.06;12254074;19;19990;-89
2022/09/26 16:05:15;;;;;;;;;;;21.30;44.40;;;19.46;50.27;99739.19;12248038;19;20333;-89
2022/09/26 16:09:28;;;;;;;;;;;21.30;44.50;;;19.35;50.31;99723.63;12253404;19;20341;-88
2022/09/26 16:13:34;;;;;;;;;;;21.30;44.80;;;19.41;50.30;99735.38;12251948;19;19910;-89
2022/09/26 16:17:44;;;;;;;;;;;21.30;44.50;;;19.44;50.20;99746.47;12255080;19;19919;-89
2022/09/26 16:21:54;;;;;;;;;;;21.30;44.50;;;19.35;50.46;99731.56;12252658;19;19919;-89
2022/09/26 16:25:56;;;;;;;;;;;21.20;44.60;;;19.42;50.53;99742.34;12251572;19;19918;-89
2022/09/26 16:29:58;;;;;;;;;;;21.20;45.10;;;19.33;50.00;99741.50;12253883;19;20269;-89
2022/09/26 16:34:00;;;;;;;;;;;21.20;44.60;;;19.19;50.33;99726.28;12252750;19;19911;-89
2022/09/26 16:38:06;;;;;;;;;;;21.20;44.40;;;19.04;50.38;99704.09;12253825;19;20295;-89
2022/09/26 16:42:15;;;;;;;;;;;21.10;44.30;;;19.08;50.12;99714.19;12251598;19;20290;-89
2022/09/26 16:46:22;;;;;;;;;;;21.10;44.30;;;18.91;50.32;99688.72;12247847;19;20334;-89
2022/09/26 16:50:27;;;;;;;;;;;21.00;44.40;;;18.85;50.09;99682.28;12252602;19;19922;-89
2022/09/26 16:54:29;;;;;;;;;;;21.00;44.50;;;18.80;50.04;99689.88;12250498;19;19940;-89
2022/09/26 16:58:30;;;;;;;;;;;20.90;44.30;;;18.84;50.36;99709.72;12254130;19;19911;-89
2022/09/26 17:02:33;;;;;;;;;;;20.90;44.30;;;18.85;50.34;99729.03;12250455;19;19953;-89
2022/09/26 17:06:36;;;;;;;;;;;20.80;44.30;;;18.43;50.25;99677.03;12247377;19;19915;-89
2022/09/26 17:10:37;;;;;;;;;;;20.70;44.30;;;18.62;50.11;99724.34;12260604;19;19915;-89
2022/09/26 17:14:40;;;;;;;;;;;20.60;44.30;;;18.43;50.29;99712.22;12250184;19;19915;-89
2022/09/26 17:18:45;;;;;;;;;;;20.50;44.30;;;18.37;50.40;99723.44;12249861;19;20027;-88
2022/09/26 17:22:47;;;;;;;;;;;20.40;44.30;;;18.19;50.17;99723.53;12241115;19;19947;-90
2022/09/26 17:27:01;;;;;;;;;;;20.30;44.20;;;17.97;50.37;99698.50;12238954;19;19997;-88
2022/09/26 17:31:10;;;;;;;;;;;20.10;44.30;;;17.96;50.50;99704.78;12251682;19;19974;-89
2022/09/26 17:35:16;;;;;;;;;;;20.00;44.40;;;17.76;50.51;99690.09;12244967;19;19917;-88
2022/09/26 17:39:20;;;;;;;;;;;19.90;44.40;;;17.70;50.40;99713.50;12246078;19;20312;-89
2022/09/26 17:43:22;;;;;;;;;;;19.80;44.60;;;17.66;50.50;99709.53;12243966;19;19944;-89
2022/09/26 17:47:23;;;;;;;;;;;19.70;44.50;;;17.43;50.37;99685.44;12254481;19;19922;-89
2022/09/26 17:51:24;;;;;;;;;;;19.60;44.40;;;17.45;50.46;99709.88;12258913;19;19923;-89
2022/09/26 17:55:27;;;;;;;;;;;19.50;44.50;;;17.35;50.46;99708.31;12253434;19;20337;-89
2022/09/26 17:59:29;;;;;;;;;;;19.40;44.50;;;17.16;50.42;99694.31;12258642;19;19911;-89
2022/09/26 18:03:32;;;;;;;;;;;19.30;44.50;;;16.97;50.54;99670.75;12253404;19;19990;-88
2022/09/26 18:07:36;;;;;;;;;;;19.10;44.60;;;16.95;50.26;99680.63;12257915;19;19923;-89
2022/09/26 18:11:40;;;;;;;;;;;19.00;44.70;;;16.75;50.50;99672.81;12258889;19;19918;-89
2022/09/26 18:15:42;;;;;;;;;;;18.90;44.70;;;16.73;50.54;99677.41;12253839;19;19922;-89
2022/09/26 18:19:43;;;;;;;;;;;18.90;44.80;;;16.50;50.50;99660.38;12259010;19;19919;-89
2022/09/26 18:24:04;;;;;;;;;;;18.70;44.80;;;16.48;50.92;99664.97;12256620;19;19940;-89
2022/09/26 18:28:09;;;;;;;;;;;18.70;45.00;;;16.32;50.81;99648.00;12259845;19;19915;-89
2022/09/26 18:32:25;;;;;;;;;;;18.60;45.10;;;16.32;50.92;99655.09;12259342;19;19933;-89
2022/09/26 18:36:28;;;;;;;;;;;18.50;45.10;;;16.45;50.89;99689.00;12252069;19;19919;-89
2022/09/26 18:40:30;;;;;;;;;;;18.40;45.10;;;16.01;50.57;99628.22;12257949;19;20375;-89
2022/09/26 18:44:33;;;;;;;;;;;18.40;45.10;;;16.26;50.88;99680.22;12253868;19;20340;-86
2022/09/26 18:48:36;;;;;;;;;;;18.30;45.10;;;16.17;50.84;99675.81;12259031;19;19928;-86
2022/09/26 18:52:38;;;;;;;;;;;18.20;45.20;;;16.22;50.72;99689.38;12259245;19;20243;-89
2022/09/26 19:01:06;;;;;;;;;;;18.10;45.20;;;16.08;50.81;99666.19;12257986;19;19932;-89
2022/09/26 19:05:13;;;;;;;;;;;18.10;45.30;;;15.91;50.68;99657.25;12252203;19;19919;-89